Time;durP1;ratioP1;P1;durP2;ratioP2;P2;SDS_P1;SDS_P2;PMS_P1;PMS_P2;Temp;Humidity;BMP_temperature;BMP_pressure;BME280_temperature;BME280_humidity;BME280_pressure;Samples;Min_cycle;Max_cycle;Signal;HPM_P1;HPM_P2
2023/11/21 00:02:10;;;;;;;55.42;24.48;;;;;;;7.16;100.00;99893.47;10370840;28;20056;-80
2023/11/21 00:07:15;;;;;;;47.80;22.80;;;;;;;7.03;100.00;99893.53;10377721;28;20054;-82
2023/11/21 00:12:35;;;;;;;46.67;23.65;;;;;;;6.85;100.00;99890.38;10393112;28;20717;-81
2023/11/21 00:17:39;;;;;;;40.83;20.83;;;;;;;7.03;100.00;99890.88;10358967;28;20057;-79
2023/11/21 00:22:43;;;;;;;50.05;23.98;;;;;;;7.25;100.00;99898.97;10363908;28;20049;-82
2023/11/21 00:27:49;;;;;;;49.22;22.30;;;;;;;7.21;100.00;99907.34;10349888;28;20077;-81
2023/11/21 00:32:52;;;;;;;47.65;21.80;;;;;;;7.12;100.00;99913.38;10321815;28;20053;-83
2023/11/21 00:37:58;;;;;;;46.15;19.77;;;;;;;6.92;100.00;99918.34;10337181;28;20575;-81
2023/11/21 00:43:01;;;;;;;43.00;18.38;;;;;;;7.20;100.00;99913.66;10333668;28;20052;-80
2023/11/21 00:48:08;;;;;;;42.97;19.63;;;;;;;7.21;100.00;99912.66;10327711;28;20276;-80
2023/11/21 00:53:12;;;;;;;50.35;19.08;;;;;;;7.41;100.00;99919.22;10331148;28;20045;-78
2023/11/21 00:58:15;;;;;;;40.25;19.42;;;;;;;7.46;100.00;99909.88;10344355;28;20049;-81
2023/11/21 01:03:18;;;;;;;49.58;20.98;;;;;;;7.52;100.00;99911.25;10338061;28;20045;-80
2023/11/21 01:08:24;;;;;;;45.90;20.50;;;;;;;7.46;100.00;99915.22;10335705;28;20125;-80
2023/11/21 01:13:29;;;;;;;40.53;20.77;;;;;;;7.39;100.00;99922.00;10332960;28;20050;-79
2023/11/21 01:18:32;;;;;;;45.85;19.25;;;;;;;7.42;100.00;99928.94;10353584;28;20073;-78
2023/11/21 01:23:37;;;;;;;40.63;20.05;;;;;;;7.41;100.00;99928.09;10377373;28;20038;-81
2023/11/21 01:28:40;;;;;;;43.38;18.98;;;;;;;7.41;100.00;99930.75;10343895;28;20049;-82
2023/11/21 01:33:42;;;;;;;42.33;18.02;;;;;;;7.47;100.00;99929.44;10362476;28;20056;-81
2023/11/21 01:38:47;;;;;;;44.50;18.85;;;;;;;7.47;100.00;99940.97;10347005;28;20062;-80
2023/11/21 01:43:53;;;;;;;42.55;19.00;;;;;;;7.58;100.00;99942.00;10367268;28;20057;-80
2023/11/21 01:48:57;;;;;;;42.15;19.60;;;;;;;7.61;100.00;99933.75;10363989;28;20050;-79
2023/11/21 01:54:01;;;;;;;45.22;20.05;;;;;;;7.62;99.63;99936.28;10343084;28;20100;-80
2023/11/21 01:59:04;;;;;;;38.83;17.80;;;;;;;7.59;99.62;99928.50;10329328;28;20519;-82
2023/11/21 02:04:09;;;;;;;37.92;18.52;;;;;;;7.61;99.43;99931.06;10338315;28;20050;-82
2023/11/21 02:09:15;;;;;;;40.13;18.48;;;;;;;7.18;100.00;99942.28;10348094;28;20773;-80
2023/11/21 02:14:20;;;;;;;41.97;16.50;;;;;;;7.55;100.00;99937.72;10348744;28;20144;-81
2023/11/21 02:19:25;;;;;;;35.50;16.42;;;;;;;7.66;99.97;99950.28;10333331;28;20050;-80
2023/11/21 02:24:29;;;;;;;32.50;16.45;;;;;;;7.81;99.66;99966.97;10348366;28;20072;-80
2023/11/21 02:29:33;;;;;;;37.75;16.23;;;;;;;7.81;99.19;99977.66;10335070;28;20054;-81
2023/11/21 02:34:36;;;;;;;31.08;16.48;;;;;;;7.79;98.80;99972.47;10327470;28;20045;-80
2023/11/21 02:39:40;;;;;;;35.05;16.63;;;;;;;7.66;99.17;99980.53;10316935;28;20051;-80
2023/11/21 02:44:43;;;;;;;46.38;18.13;;;;;;;7.58;99.94;99974.06;10329877;28;20057;-80
2023/11/21 02:49:45;;;;;;;36.63;16.23;;;;;;;7.59;100.00;99986.47;10332117;28;20524;-81
2023/11/21 02:54:50;;;;;;;37.55;16.83;;;;;;;7.71;99.09;99977.53;10330832;28;20070;-81
2023/11/21 02:59:53;;;;;;;40.08;18.40;;;;;;;7.68;98.88;99981.28;10353578;28;20049;-80
2023/11/21 03:04:55;;;;;;;38.05;16.40;;;;;;;7.65;99.03;99983.31;10326274;28;20045;-81
2023/11/21 03:10:00;;;;;;;44.50;16.52;;;;;;;7.45;100.00;99983.00;10341402;28;20045;-82
2023/11/21 03:15:04;;;;;;;42.25;16.92;;;;;;;7.60;100.00;99988.19;10334787;28;20656;-81
2023/11/21 03:20:10;;;;;;;38.08;16.30;;;;;;;7.69;99.98;99982.97;10337215;28;20050;-80
2023/11/21 03:25:17;;;;;;;37.40;17.30;;;;;;;7.48;100.00;99996.13;10340992;28;20150;-80
2023/11/21 03:30:20;;;;;;;37.88;17.33;;;;;;;7.48;100.00;99998.78;10321718;28;20053;-79
2023/11/21 03:35:24;;;;;;;41.60;17.42;;;;;;;7.65;100.00;100002.91;10361749;28;20886;-82
2023/11/21 03:40:28;;;;;;;44.20;16.65;;;;;;;7.63;100.00;100009.34;10338573;28;20046;-81
2023/11/21 03:45:31;;;;;;;46.00;17.63;;;;;;;7.60;100.00;100020.25;10340088;28;20053;-82
2023/11/21 03:50:34;;;;;;;44.83;18.42;;;;;;;7.56;100.00;100016.09;10330993;28;20046;-81
2023/11/21 03:55:38;;;;;;;36.17;15.57;;;;;;;7.55;100.00;100025.94;10343397;28;20690;-80
2023/11/21 04:00:41;;;;;;;39.97;16.95;;;;;;;7.39;100.00;100018.19;10345662;28;20056;-80
2023/11/21 04:05:45;;;;;;;41.42;17.50;;;;;;;7.64;100.00;100029.75;10375043;28;20255;-81
2023/11/21 04:10:51;;;;;;;37.30;14.70;;;;;;;7.77;100.00;100037.72;10386136;28;20064;-80
2023/11/21 04:15:56;;;;;;;43.03;16.13;;;;;;;7.79;100.00;100036.63;10340996;28;20276;-79
2023/11/21 04:20:59;;;;;;;40.80;15.82;;;;;;;7.64;100.00;100043.97;10327415;28;20038;-80
2023/11/21 04:26:03;;;;;;;41.08;16.30;;;;;;;7.69;99.91;100052.50;10325198;28;20050;-82
2023/11/21 04:31:06;;;;;;;36.83;15.70;;;;;;;7.71;99.80;100057.75;10332162;28;20049;-80
2023/11/21 04:36:10;;;;;;;39.53;16.70;;;;;;;7.70;99.46;100056.84;10338067;28;20056;-80
2023/11/21 04:41:14;;;;;;;41.42;16.58;;;;;;;7.72;99.77;100062.94;10330302;28;20439;-81
2023/11/21 04:46:17;;;;;;;39.67;16.20;;;;;;;7.66;99.37;100071.44;10334732;28;20057;-80
2023/11/21 04:51:20;;;;;;;41.53;16.92;;;;;;;7.66;99.66;100070.59;10340807;28;20108;-79
2023/11/21 04:56:24;;;;;;;44.38;16.13;;;;;;;7.63;100.00;100076.16;10335224;28;20041;-79
2023/11/21 05:01:27;;;;;;;42.90;15.82;;;;;;;7.59;100.00;100074.66;10328079;28;20054;-80
2023/11/21 05:06:30;;;;;;;40.78;16.88;;;;;;;7.61;100.00;100070.06;10320608;28;20058;-82
2023/11/21 05:11:34;;;;;;;48.50;18.38;;;;;;;7.60;100.00;100063.03;10342448;28;20052;-81
2023/11/21 05:16:37;;;;;;;44.65;18.75;;;;;;;7.58;100.00;100062.28;10338419;28;20502;-79
2023/11/21 05:21:40;;;;;;;44.63;18.45;;;;;;;7.45;100.00;100071.19;10337267;28;20622;-81
2023/11/21 05:26:45;;;;;;;54.45;20.60;;;;;;;7.42;100.00;100082.09;10337250;28;20065;-81
2023/11/21 05:31:48;;;;;;;49.45;20.02;;;;;;;7.54;100.00;100088.34;10314387;28;20050;-81
2023/11/21 05:36:51;;;;;;;53.38;20.65;;;;;;;7.56;100.00;100098.94;10324214;28;20094;-81
2023/11/21 05:41:55;;;;;;;46.47;19.45;;;;;;;7.61;100.00;100096.81;10329631;28;20038;-82
2023/11/21 05:46:58;;;;;;;47.45;20.58;;;;;;;7.64;100.00;100097.41;10351926;28;20393;-80
2023/11/21 05:52:02;;;;;;;44.60;19.08;;;;;;;7.58;100.00;100099.69;10344279;28;20058;-82
2023/11/21 05:57:06;;;;;;;47.42;20.58;;;;;;;7.58;100.00;100102.38;10327603;28;20050;-81
2023/11/21 06:02:09;;;;;;;53.75;20.15;;;;;;;7.59;100.00;100104.91;10332975;28;20053;-81
2023/11/21 06:07:12;;;;;;;51.50;20.58;;;;;;;7.54;100.00;100108.91;10334345;28;20046;-81
2023/11/21 06:12:17;;;;;;;49.20;19.70;;;;;;;7.59;100.00;100120.97;10335967;28;20947;-80
2023/11/21 06:17:20;;;;;;;45.65;19.13;;;;;;;7.69;100.00;100130.03;10345294;28;20049;-80
2023/11/21 06:22:23;;;;;;;50.45;20.58;;;;;;;7.75;100.00;100139.41;10324725;28;20050;-80
2023/11/21 06:27:27;;;;;;;48.72;20.88;;;;;;;7.71;100.00;100154.00;10329722;28;20054;-80
2023/11/21 06:32:30;;;;;;;49.17;20.17;;;;;;;7.57;100.00;100162.13;10317308;28;20050;-81
2023/11/21 06:37:33;;;;;;;44.92;19.45;;;;;;;7.67;100.00;100168.53;10321594;28;20052;-81
2023/11/21 06:42:39;;;;;;;45.42;19.83;;;;;;;7.62;100.00;100178.69;10342321;28;20133;-82
2023/11/21 06:47:42;;;;;;;46.97;19.45;;;;;;;7.55;100.00;100186.31;10347072;28;20052;-82
2023/11/21 06:52:45;;;;;;;48.55;19.85;;;;;;;7.69;100.00;100182.66;10328642;28;20046;-79
2023/11/21 06:57:49;;;;;;;45.05;19.35;;;;;;;7.53;100.00;100193.56;10329268;28;20049;-82
2023/11/21 07:02:52;;;;;;;49.28;19.92;;;;;;;7.62;100.00;100195.59;10343654;28;20085;-82
2023/11/21 07:07:55;;;;;;;50.08;21.15;;;;;;;7.66;100.00;100210.47;10340732;28;20054;-81
2023/11/21 07:13:00;;;;;;;48.00;21.23;;;;;;;7.52;100.00;100209.75;10330631;28;20054;-81
2023/11/21 07:18:04;;;;;;;52.17;20.95;;;;;;;7.47;100.00;100218.06;10350975;28;20049;-82
2023/11/21 07:23:07;;;;;;;51.65;21.33;;;;;;;7.23;100.00;100231.34;10346674;28;20072;-83
2023/11/21 07:28:11;;;;;;;51.30;21.42;;;;;;;7.24;100.00;100233.03;10345182;28;20834;-80
2023/11/21 07:33:14;;;;;;;57.25;20.70;;;;;;;7.10;100.00;100244.66;10314292;28;20054;-80
2023/11/21 07:38:17;;;;;;;65.00;24.30;;;;;;;7.35;100.00;100251.88;10373358;28;20057;-82
2023/11/21 07:43:22;;;;;;;64.40;23.75;;;;;;;7.27;100.00;100259.56;10345350;28;20065;-81
2023/11/21 07:48:26;;;;;;;63.55;24.52;;;;;;;7.32;100.00;100269.91;10353801;28;20053;-78
2023/11/21 07:53:29;;;;;;;56.90;21.73;;;;;;;7.46;100.00;100269.81;10343777;28;20757;-81
2023/11/21 07:58:34;;;;;;;65.97;23.40;;;;;;;7.41;100.00;100269.28;10345348;28;20752;-82
2023/11/21 08:03:37;;;;;;;76.10;26.15;;;;;;;7.44;100.00;100279.78;10322015;28;20046;-82
2023/11/21 08:08:40;;;;;;;70.28;24.58;;;;;;;7.58;100.00;100270.78;10341941;28;20050;-83
2023/11/21 08:13:45;;;;;;;71.05;22.60;;;;;;;7.66;100.00;100273.78;10345676;28;20203;-84
2023/11/21 08:18:48;;;;;;;67.45;22.63;;;;;;;7.98;100.00;100287.53;10344091;28;20160;-84
2023/11/21 08:23:54;;;;;;;59.83;21.25;;;;;;;8.27;100.00;100290.75;10337458;28;20904;-85
2023/11/21 08:28:58;;;;;;;44.17;16.67;;;;;;;8.27;100.00;100290.75;10342299;28;20079;-82
2023/11/21 08:34:01;;;;;;;39.35;16.23;;;;;;;8.31;100.00;100307.44;10349008;28;20050;-82
2023/11/21 08:39:05;;;;;;;30.35;14.15;;;;;;;8.24;100.00;100311.53;10344863;28;20045;-84
2023/11/21 08:44:09;;;;;;;26.13;11.73;;;;;;;8.16;100.00;100325.47;10331219;28;20077;-84
2023/11/21 08:49:14;;;;;;;21.23;10.73;;;;;;;8.10;100.00;100341.97;10336883;28;20070;-85
2023/11/21 08:54:17;;;;;;;22.25;11.45;;;;;;;8.05;100.00;100346.78;10340880;28;20557;-84
2023/11/21 08:59:21;;;;;;;18.08;10.00;;;;;;;8.05;100.00;100357.50;10337161;28;20452;-82
2023/11/21 09:04:24;;;;;;;18.65;11.45;;;;;;;7.80;100.00;100359.22;10347257;28;20057;-83
2023/11/21 09:09:27;;;;;;;22.40;12.55;;;;;;;7.89;100.00;100363.91;10373029;28;20427;-83
2023/11/21 09:14:32;;;;;;;23.25;13.85;;;;;;;7.85;100.00;100370.44;10343532;28;20164;-83
2023/11/21 09:19:35;;;;;;;29.38;14.75;;;;;;;7.78;100.00;100379.00;10328051;28;20062;-83
2023/11/21 09:24:38;;;;;;;23.77;12.93;;;;;;;7.67;100.00;100388.63;10333102;28;20054;-83
2023/11/21 09:29:43;;;;;;;25.02;10.95;;;;;;;7.71;100.00;100392.81;10340116;28;20783;-82
2023/11/21 09:34:46;;;;;;;26.92;11.07;;;;;;;7.78;100.00;100403.91;10351197;28;20065;-83
2023/11/21 09:39:50;;;;;;;17.42;8.25;;;;;;;7.72;100.00;100407.03;10358300;28;20057;-84
2023/11/21 09:45:03;;;;;;;16.08;7.50;;;;;;;7.65;100.00;100409.28;10368820;28;20049;-83
2023/11/21 09:50:08;;;;;;;15.63;7.57;;;;;;;7.66;100.00;100423.50;10392637;28;20479;-83
2023/11/21 09:55:15;;;;;;;13.05;6.72;;;;;;;7.78;100.00;100429.81;10365964;28;20057;-84
2023/11/21 10:00:23;;;;;;;21.20;7.18;;;;;;;7.77;100.00;100439.66;10347219;28;20450;-83
2023/11/21 10:05:26;;;;;;;13.80;6.30;;;;;;;7.72;100.00;100442.63;10347346;28;20046;-81
2023/11/21 10:10:33;;;;;;;9.32;5.70;;;;;;;7.71;100.00;100451.63;10375418;28;20054;-82
2023/11/21 10:15:38;;;;;;;14.13;5.95;;;;;;;7.73;100.00;100455.06;10344911;28;21269;-82
2023/11/21 10:20:40;;;;;;;9.70;5.68;;;;;;;7.68;100.00;100462.53;10360500;28;20056;-84
2023/11/21 10:25:43;;;;;;;18.13;6.03;;;;;;;7.63;100.00;100471.81;10352891;28;20050;-83
2023/11/21 10:30:48;;;;;;;7.93;5.22;;;;;;;7.52;100.00;100477.91;10363841;28;20399;-82
2023/11/21 10:35:51;;;;;;;10.35;5.80;;;;;;;7.44;100.00;100481.06;10378985;28;20049;-81
2023/11/21 10:40:55;;;;;;;10.60;6.72;;;;;;;7.43;100.00;100474.03;10364759;28;20046;-83
2023/11/21 10:46:00;;;;;;;14.25;8.02;;;;;;;7.41;100.00;100480.44;10362624;28;20445;-84
2023/11/21 10:51:07;;;;;;;13.40;7.47;;;;;;;7.39;100.00;100488.53;10332754;28;20069;-82
2023/11/21 10:56:17;;;;;;;9.27;6.65;;;;;;;7.41;100.00;100491.97;10340171;28;20070;-83
2023/11/21 11:01:23;;;;;;;10.13;6.25;;;;;;;7.53;100.00;100489.44;10332285;28;20525;-83
2023/11/21 11:06:27;;;;;;;10.82;7.25;;;;;;;7.45;100.00;100512.16;10327501;28;20163;-82
2023/11/21 11:11:31;;;;;;;12.15;7.40;;;;;;;7.38;100.00;100518.03;10343286;28;20425;-83
2023/11/21 11:16:37;;;;;;;14.05;8.60;;;;;;;7.24;100.00;100535.84;10355446;28;20045;-82
2023/11/21 11:21:51;;;;;;;14.95;8.60;;;;;;;7.21;100.00;100543.16;10370529;28;20059;-84
2023/11/21 11:27:02;;;;;;;13.63;8.90;;;;;;;7.42;100.00;100530.25;10350833;28;20045;-83
2023/11/21 11:32:17;;;;;;;12.95;8.32;;;;;;;7.78;100.00;100544.78;10349403;28;20046;-83
2023/11/21 11:37:22;;;;;;;13.15;8.48;;;;;;;7.78;98.61;100555.50;10369137;28;20056;-83
2023/11/21 11:42:25;;;;;;;13.73;8.45;;;;;;;7.37;96.47;100551.06;10371580;28;20049;-82
2023/11/21 11:47:33;;;;;;;13.75;9.20;;;;;;;7.41;97.71;100560.59;10373258;28;20140;-83
2023/11/21 11:52:40;;;;;;;13.23;8.57;;;;;;;7.47;95.66;100562.88;10359413;28;20077;-82
2023/11/21 11:57:44;;;;;;;13.98;8.20;;;;;;;7.36;96.72;100565.38;10366982;28;20050;-84
2023/11/21 12:02:51;;;;;;;14.73;8.85;;;;;;;7.30;96.68;100568.47;10358792;28;20053;-84
2023/11/21 12:07:56;;;;;;;14.13;9.35;;;;;;;7.25;96.15;100576.75;10361168;28;21245;-84
2023/11/21 12:13:01;;;;;;;14.43;9.55;;;;;;;7.15;95.78;100589.84;10365589;28;20655;-82
2023/11/21 12:18:06;;;;;;;16.80;10.82;;;;;;;7.10;95.69;100599.94;10389270;28;20056;-84
2023/11/21 12:23:10;;;;;;;15.73;10.52;;;;;;;6.97;94.15;100615.06;10401783;28;20229;-83
2023/11/21 12:28:14;;;;;;;15.13;9.75;;;;;;;6.91;93.61;100628.78;10387633;28;20124;-81
2023/11/21 12:33:18;;;;;;;15.98;9.70;;;;;;;6.97;94.30;100623.06;10366142;28;20053;-82
2023/11/21 12:38:24;;;;;;;15.02;9.45;;;;;;;7.11;96.00;100627.56;10380020;28;20052;-85
2023/11/21 12:43:27;;;;;;;14.60;9.35;;;;;;;7.19;95.64;100631.44;10366818;28;20056;-82
2023/11/21 12:48:33;;;;;;;21.42;12.45;;;;;;;7.16;95.37;100633.44;10371514;28;20052;-83
2023/11/21 12:53:38;;;;;;;14.38;8.35;;;;;;;7.09;94.29;100629.44;10368546;28;20128;-83
2023/11/21 12:58:46;;;;;;;12.55;7.95;;;;;;;7.06;93.81;100647.38;10368571;28;20668;-83
2023/11/21 13:03:51;;;;;;;11.10;7.18;;;;;;;7.32;91.67;100634.19;10365294;28;20096;-83
2023/11/21 13:08:57;;;;;;;10.80;6.95;;;;;;;7.39;88.76;100637.34;10357009;28;20068;-84
2023/11/21 13:14:00;;;;;;;12.30;7.72;;;;;;;7.44;86.71;100651.28;10354135;28;20049;-83
2023/11/21 13:19:05;;;;;;;9.82;7.22;;;;;;;7.70;88.84;100674.50;10366045;28;20060;-83
2023/11/21 13:24:10;;;;;;;9.98;7.30;;;;;;;7.75;86.91;100689.41;10359804;28;20050;-82
2023/11/21 13:29:13;;;;;;;9.38;7.05;;;;;;;7.72;87.95;100694.00;10376928;28;20033;-83
2023/11/21 13:34:19;;;;;;;14.27;9.40;;;;;;;7.59;88.91;100705.56;10397731;28;20059;-82
2023/11/21 13:39:28;;;;;;;11.23;7.95;;;;;;;7.52;88.83;100699.75;10348379;28;20046;-81
2023/11/21 13:44:37;;;;;;;10.40;7.28;;;;;;;7.38;86.60;100708.66;10354406;28;20064;-83
2023/11/21 13:49:42;;;;;;;11.50;7.35;;;;;;;7.34;84.96;100716.94;10357309;28;20506;-82
2023/11/21 13:54:44;;;;;;;10.00;7.57;;;;;;;7.40;84.75;100719.22;10341813;28;20045;-82
2023/11/21 13:59:47;;;;;;;14.52;7.38;;;;;;;7.28;85.08;100731.56;10365940;28;20053;-83
2023/11/21 14:04:54;;;;;;;9.90;6.80;;;;;;;7.12;82.55;100728.94;10351182;28;20054;-82
2023/11/21 14:09:58;;;;;;;8.38;6.20;;;;;;;7.13;82.89;100751.19;10330686;28;20050;-82
2023/11/21 14:15:03;;;;;;;9.30;6.90;;;;;;;7.12;82.72;100755.66;10348321;28;20050;-82
2023/11/21 14:20:15;;;;;;;9.75;6.65;;;;;;;7.09;82.83;100760.34;10360814;28;20054;-82
2023/11/21 14:25:18;;;;;;;12.57;6.72;;;;;;;7.00;82.35;100773.31;10367372;28;20080;-84
2023/11/21 14:30:22;;;;;;;11.50;7.32;;;;;;;7.01;82.30;100774.16;10364143;28;20058;-82
2023/11/21 14:35:27;;;;;;;10.18;6.45;;;;;;;6.95;82.39;100774.53;10371757;28;20145;-83
2023/11/21 14:40:32;;;;;;;10.00;6.30;;;;;;;6.89;81.63;100781.09;10331685;28;20053;-82
2023/11/21 14:45:36;;;;;;;8.30;6.00;;;;;;;6.91;82.26;100787.22;10319743;28;20061;-83
2023/11/21 14:50:50;;;;;;;7.95;6.40;;;;;;;6.84;80.75;100805.38;10337002;28;20050;-82
2023/11/21 14:55:59;;;;;;;11.38;7.40;;;;;;;6.79;81.71;100817.28;10367636;28;20057;-81
2023/11/21 15:01:03;;;;;;;9.55;7.00;;;;;;;6.70;81.88;100818.66;10367681;28;20064;-84
2023/11/21 15:06:26;;;;;;;15.02;6.70;;;;;;;6.71;82.33;100824.88;10364268;28;20049;-82
2023/11/21 15:11:30;;;;;;;9.45;6.88;;;;;;;6.62;81.53;100834.28;10334835;28;20056;-84
2023/11/21 15:16:38;;;;;;;8.93;6.57;;;;;;;6.66;83.58;100834.94;10349389;28;20058;-83
2023/11/21 15:21:44;;;;;;;10.30;6.47;;;;;;;6.61;85.07;100857.44;10348073;28;20100;-82
2023/11/21 15:26:46;;;;;;;14.75;8.65;;;;;;;6.54;85.62;100865.88;10327241;28;20046;-83
2023/11/21 15:31:49;;;;;;;11.05;7.60;;;;;;;6.48;86.54;100855.56;10342134;28;20122;-83
2023/11/21 15:36:54;;;;;;;11.90;8.13;;;;;;;6.48;87.41;100864.41;10344473;28;20072;-82
2023/11/21 15:41:58;;;;;;;10.48;7.63;;;;;;;6.42;86.92;100878.13;10341893;28;20046;-81
2023/11/21 15:47:03;;;;;;;11.43;7.68;;;;;;;6.35;84.98;100888.25;10332049;28;20492;-84
2023/11/21 15:52:10;;;;;;;9.73;6.40;;;;;;;6.32;83.82;100890.22;10314810;28;20050;-82
2023/11/21 15:57:14;;;;;;;10.27;7.20;;;;;;;6.37;84.27;100901.53;10323145;28;20064;-83
2023/11/21 16:02:17;;;;;;;9.65;6.53;;;;;;;6.33;83.91;100900.81;10329120;28;20129;-84
2023/11/21 16:07:22;;;;;;;8.75;6.85;;;;;;;6.35;84.21;100904.25;10348908;28;20759;-82
2023/11/21 16:12:25;;;;;;;10.02;6.50;;;;;;;6.32;84.25;100917.78;10326288;28;20060;-81
2023/11/21 16:17:28;;;;;;;12.13;7.55;;;;;;;6.33;84.11;100923.97;10330986;28;20050;-81
2023/11/21 16:22:33;;;;;;;9.95;7.05;;;;;;;6.34;83.92;100947.06;10328569;28;20058;-81
2023/11/21 16:27:38;;;;;;;10.27;7.05;;;;;;;6.24;83.04;100949.34;10376882;28;20072;-83
2023/11/21 16:32:41;;;;;;;10.43;6.95;;;;;;;6.27;82.95;100951.84;10353037;28;20046;-82
2023/11/21 16:37:47;;;;;;;9.70;6.80;;;;;;;6.28;83.70;100964.25;10333749;28;21230;-85
2023/11/21 16:42:50;;;;;;;10.45;7.07;;;;;;;6.27;82.92;100973.19;10362713;28;20049;-84
2023/11/21 16:47:53;;;;;;;13.25;8.38;;;;;;;6.26;83.18;100984.81;10372271;28;20057;-83
2023/11/21 16:52:58;;;;;;;13.88;8.63;;;;;;;6.30;83.48;100999.72;10364558;28;20053;-80
2023/11/21 16:58:01;;;;;;;12.15;7.30;;;;;;;6.27;83.39;101007.88;10381968;28;20503;-83
2023/11/21 17:03:05;;;;;;;11.55;8.45;;;;;;;6.28;83.75;101009.63;10374832;28;20053;-82
2023/11/21 17:08:10;;;;;;;13.63;8.15;;;;;;;6.31;83.67;101020.13;10384000;28;20058;-82
2023/11/21 17:13:13;;;;;;;11.90;8.40;;;;;;;6.13;85.95;101029.09;10406863;28;20048;-81
2023/11/21 17:18:18;;;;;;;11.10;7.78;;;;;;;5.97;87.69;101031.69;10368592;28;20053;-83
2023/11/21 17:23:23;;;;;;;11.93;8.43;;;;;;;5.90;88.98;101052.50;10362217;28;20424;-82
2023/11/21 17:28:25;;;;;;;10.43;7.70;;;;;;;5.80;89.80;101061.03;10401077;28;20045;-80
2023/11/21 17:33:28;;;;;;;14.23;7.93;;;;;;;5.75;89.47;101069.25;10385933;28;20099;-81
2023/11/21 17:38:33;;;;;;;12.13;7.43;;;;;;;5.76;88.68;101083.44;10387142;28;20188;-82
2023/11/21 17:43:40;;;;;;;12.85;7.60;;;;;;;5.76;89.04;101083.44;10382848;28;20056;-83
2023/11/21 17:48:43;;;;;;;11.52;7.38;;;;;;;5.77;88.87;101088.69;10370283;28;20054;-83
2023/11/21 17:53:48;;;;;;;12.32;7.30;;;;;;;5.78;88.79;101108.22;10357056;28;21130;-82
2023/11/21 17:58:53;;;;;;;9.88;6.63;;;;;;;5.68;88.54;101108.69;10342847;28;20046;-82
2023/11/21 18:03:58;;;;;;;9.80;6.63;;;;;;;5.73;88.37;101113.78;10333028;28;20049;-80
2023/11/21 18:09:03;;;;;;;12.30;8.48;;;;;;;5.76;88.35;101126.09;10344563;28;20408;-81
2023/11/21 18:14:09;;;;;;;15.13;9.55;;;;;;;5.87;89.11;101131.75;10339166;28;20054;-79
2023/11/21 18:19:13;;;;;;;16.05;9.50;;;;;;;5.86;89.04;101143.38;10348475;28;20054;-80
2023/11/21 18:24:17;;;;;;;12.80;8.95;;;;;;;5.84;89.04;101151.47;10344172;28;20516;-83
2023/11/21 18:29:20;;;;;;;11.05;7.85;;;;;;;5.70;88.36;101161.91;10355573;28;20057;-83
2023/11/21 18:34:24;;;;;;;11.00;7.68;;;;;;;5.75;87.99;101167.03;10359254;28;20057;-81
2023/11/21 18:39:28;;;;;;;9.27;6.32;;;;;;;5.69;86.78;101181.53;10334842;28;20050;-83
2023/11/21 18:44:31;;;;;;;8.30;6.20;;;;;;;5.65;85.89;101178.16;10362211;28;20056;-80
2023/11/21 18:49:50;;;;;;;10.85;6.38;;;;;;;5.63;85.63;101185.34;10331488;28;20053;-82
2023/11/21 18:54:55;;;;;;;8.95;6.85;;;;;;;5.65;85.76;101198.59;10361032;28;20049;-81
2023/11/21 18:59:58;;;;;;;10.48;6.53;;;;;;;5.69;85.55;101208.19;10371175;28;20582;-80
2023/11/21 19:05:03;;;;;;;11.90;7.00;;;;;;;5.69;85.54;101216.19;10385180;28;20054;-83
2023/11/21 19:10:10;;;;;;;8.63;7.05;;;;;;;5.67;85.48;101223.38;10362131;28;20050;-83
2023/11/21 19:15:13;;;;;;;9.80;7.65;;;;;;;5.67;85.63;101215.38;10361017;28;20056;-82
2023/11/21 19:20:18;;;;;;;9.23;6.88;;;;;;;5.61;85.21;101226.34;10362603;28;20046;-80
2023/11/21 19:25:23;;;;;;;9.13;6.40;;;;;;;5.62;84.56;101244.94;10374611;28;20049;-81
2023/11/21 19:30:26;;;;;;;11.77;6.75;;;;;;;5.59;84.02;101255.72;10361836;28;20042;-80
2023/11/21 19:35:33;;;;;;;9.57;7.32;;;;;;;5.53;83.60;101256.00;10382630;28;20700;-80
2023/11/21 19:40:39;;;;;;;10.00;6.72;;;;;;;5.58;84.53;101255.81;10378993;28;20151;-81
2023/11/21 19:45:42;;;;;;;9.60;7.70;;;;;;;5.58;83.96;101267.31;10382743;28;20056;-81
2023/11/21 19:50:45;;;;;;;9.15;6.65;;;;;;;5.58;83.77;101259.31;10380069;28;20060;-79
2023/11/21 19:55:50;;;;;;;10.00;6.72;;;;;;;5.62;84.10;101268.03;10383595;28;20054;-80
2023/11/21 20:00:53;;;;;;;8.30;6.55;;;;;;;5.62;83.59;101268.94;10380531;28;21672;-80
2023/11/21 20:05:56;;;;;;;11.07;6.95;;;;;;;5.59;83.13;101277.03;10362652;28;21044;-80
2023/11/21 20:11:00;;;;;;;10.02;7.15;;;;;;;5.56;83.17;101285.19;10369984;28;20047;-79
2023/11/21 20:16:05;;;;;;;11.68;6.78;;;;;;;5.52;82.55;101291.59;10386955;28;20051;-80
2023/11/21 20:21:08;;;;;;;8.23;5.95;;;;;;;5.52;82.58;101302.25;10383608;28;20052;-79
2023/11/21 20:26:13;;;;;;;6.90;5.88;;;;;;;5.49;82.82;101311.25;10344571;28;20621;-80
2023/11/21 20:31:21;;;;;;;8.70;6.90;;;;;;;5.54;83.29;101326.16;10369586;28;20063;-80
2023/11/21 20:36:24;;;;;;;8.57;7.15;;;;;;;5.54;83.71;101327.06;10393789;28;20045;-81
2023/11/21 20:41:29;;;;;;;9.20;7.03;;;;;;;5.50;83.69;101322.78;10388065;28;20057;-79
2023/11/21 20:46:32;;;;;;;10.68;7.10;;;;;;;5.50;84.22;101328.97;10388899;28;20068;-79
2023/11/21 20:51:35;;;;;;;11.00;7.88;;;;;;;5.47;84.72;101333.59;10389670;28;20050;-79
2023/11/21 20:56:40;;;;;;;14.95;9.30;;;;;;;5.40;85.85;101332.09;10393401;28;20199;-79
2023/11/21 21:01:44;;;;;;;12.25;9.18;;;;;;;5.31;87.13;101329.88;10358436;28;20053;-81
2023/11/21 21:06:47;;;;;;;15.88;9.73;;;;;;;5.24;88.13;101337.28;10387309;28;20472;-78
2023/11/21 21:11:51;;;;;;;12.70;8.52;;;;;;;5.15;88.14;101342.97;10400647;28;20109;-80
2023/11/21 21:16:54;;;;;;;12.82;7.70;;;;;;;5.06;87.90;101352.22;10363818;28;20046;-80
2023/11/21 21:21:57;;;;;;;12.40;8.23;;;;;;;5.16;88.21;101363.38;10339011;28;20046;-81
2023/11/21 21:27:01;;;;;;;13.30;7.18;;;;;;;5.16;87.49;101369.56;10366598;28;20437;-82
2023/11/21 21:32:06;;;;;;;11.27;7.57;;;;;;;5.20;87.39;101373.81;10380227;28;20056;-80
2023/11/21 21:37:10;;;;;;;8.15;6.00;;;;;;;5.22;87.11;101381.75;10373241;28;20050;-81
2023/11/21 21:42:14;;;;;;;9.00;6.38;;;;;;;5.14;86.17;101373.22;10373597;28;20184;-80
2023/11/21 21:47:17;;;;;;;7.35;5.80;;;;;;;5.06;85.23;101379.72;10353779;28;20417;-81
2023/11/21 21:52:20;;;;;;;11.65;5.45;;;;;;;5.01;84.42;101373.72;10362716;28;20072;-82
2023/11/21 21:57:25;;;;;;;7.50;5.22;;;;;;;4.92;83.31;101392.72;10382531;28;20444;-80
2023/11/21 22:02:30;;;;;;;8.48;5.07;;;;;;;4.84;83.72;101393.03;10347118;28;20053;-82
2023/11/21 22:07:33;;;;;;;8.57;4.97;;;;;;;4.68;83.23;101399.91;10354792;28;20041;-81
2023/11/21 22:12:37;;;;;;;9.10;4.93;;;;;;;4.55;83.61;101411.97;10352841;28;20801;-82
2023/11/21 22:17:41;;;;;;;6.75;4.80;;;;;;;4.39;84.07;101419.72;10350374;28;20983;-81
2023/11/21 22:22:44;;;;;;;8.38;5.45;;;;;;;4.27;84.65;101423.69;10358731;28;20049;-81
2023/11/21 22:27:48;;;;;;;9.30;5.75;;;;;;;4.16;85.32;101425.91;10341755;28;21267;-82
2023/11/21 22:32:51;;;;;;;9.85;6.57;;;;;;;4.01;86.03;101445.09;10329563;28;20049;-81
2023/11/21 22:37:54;;;;;;;8.25;5.60;;;;;;;3.95;86.08;101449.72;10381117;28;20057;-82
2023/11/21 22:42:59;;;;;;;9.63;5.72;;;;;;;3.86;86.29;101447.38;10364993;28;20046;-81
2023/11/21 22:48:02;;;;;;;11.40;6.50;;;;;;;3.80;86.82;101457.38;10348191;28;20046;-80
2023/11/21 22:53:05;;;;;;;10.13;6.00;;;;;;;3.69;86.95;101463.91;10353580;28;20199;-80
2023/11/21 22:58:09;;;;;;;11.35;5.97;;;;;;;3.63;87.22;101464.16;10347089;28;20045;-81
2023/11/21 23:03:12;;;;;;;9.07;6.32;;;;;;;3.58;87.63;101463.44;10378196;28;20435;-82
2023/11/21 23:08:16;;;;;;;10.95;6.70;;;;;;;3.52;87.83;101473.41;10378911;28;20037;-80
2023/11/21 23:13:20;;;;;;;12.88;6.70;;;;;;;3.46;87.72;101478.00;10353654;28;20480;-81